HRYR/KGL METAR and TAF weather

Enter ICAO airport designator
Station Type Date Time Source
HRYR METAR 2020/11/25 22:30 UTC NOAA

HRYR 252230Z 35003KT 310V020 5000 BR FEW010 SCT023 17/17 Q1019 BECMG 0800 FG


Station Type Date Time Source
HRYR Decoded METAR 2020/11/25 22:30 UTC NOAA

Kigali, Rwanda (HRYR) 01-58S 030-07E 1497M
Nov 25, 2020 - 05:30 PM EST / 2020.11.25 2230 UTC
Wind: from the N (350 degrees) at 3 MPH (3 KT) (direction variable):0
Visibility: 3 mile(s):0
Sky conditions: partly cloudy
Weather: mist
Temperature: 62 F (17 C)
Dew Point: 62 F (17 C)
Relative Humidity: 100%
Pressure (altimeter): 30.09 in. Hg (1019 hPa)
ob: HRYR 252230Z 35003KT 310V020 5000 BR FEW010 SCT023 17/17 Q1019 BECMG 0800 FG
cycle: 22

Station Type Date Time Source
HRYR TAF 2020/11/25 18:54 UTC NOAA

TAF HRYR 251746Z 2518/2624 16003KT 9999 SCT025 SCT100
FM252000 34005KT FEW025 SCT100
BECMG 2601/2605 00000KT 1000 FG FEW010 SCT020
FM260800 27004KT 9999 SCT023 SCT100
TEMPO 2612/2616 12010G20KT -TSRA FEW023CB BKN025
FM261800 35005KT SCT025 SCT100

Example: see airport list